logo
Search for airport 
image banner adimage banner adimage banner ad
image banner ad

4V8 - Deerfield Valley Rgnl

Located in West Dover, United States

ICAO - 4V8, IATA -

Data provided by Airmate  

General information

Coordinates: N42°55'38" W72°51'56"
Elevation is 1953 feet MSL.
Magnetic variation is -15° East
View others Airports in Vermont

Operational data

Special qualification required
Current time UTC:
Current local time:
Weather at : KDDH - William H Morse State ( 31 km )
METAR: KDDH 131554Z AUTO 24009G20KT 10SM FEW035 FEW049 OVC065 07/02 A2949 RMK AO2 RAB12E29 SLP986 P0000 T00720022 $
View NOTAMs / SUP AIP / TFR affecting this airport [VIEW]
Communications frequencies: [VIEW]

Runways:

RWY identifierQFULength (ft)Width (ft)SurfaceLDA (ft)
01350°265075ASPH
19170°265075ASPH

Airport contact information

Address: West Dover United States

Satellite view of 4V8